sensor_id;sensor_type;location;lat;lon;timestamp;temperature;humidity
17405;DHT22;8820;54.604;18.226;2024-01-30T00:01:54;4.20;99.60
17405;DHT22;8820;54.604;18.226;2024-01-30T00:04:22;4.20;99.60
17405;DHT22;8820;54.604;18.226;2024-01-30T00:06:51;4.20;99.90
17405;DHT22;8820;54.604;18.226;2024-01-30T00:09:20;4.10;99.90
17405;DHT22;8820;54.604;18.226;2024-01-30T00:11:49;4.10;99.90
17405;DHT22;8820;54.604;18.226;2024-01-30T00:14:18;4.10;99.90
17405;DHT22;8820;54.604;18.226;2024-01-30T00:16:46;4.00;99.90
17405;DHT22;8820;54.604;18.226;2024-01-30T00:19:16;4.10;99.90
17405;DHT22;8820;54.604;18.226;2024-01-30T00:21:44;4.10;99.90
17405;DHT22;8820;54.604;18.226;2024-01-30T00:24:13;4.10;99.90
17405;DHT22;8820;54.604;18.226;2024-01-30T00:26:41;4.10;99.90
17405;DHT22;8820;54.604;18.226;2024-01-30T00:29:09;4.20;99.90
17405;DHT22;8820;54.604;18.226;2024-01-30T00:31:38;4.20;99.90
17405;DHT22;8820;54.604;18.226;2024-01-30T00:34:08;4.30;99.90
17405;DHT22;8820;54.604;18.226;2024-01-30T00:36:37;4.30;99.90
17405;DHT22;8820;54.604;18.226;2024-01-30T00:39:06;4.30;99.90
17405;DHT22;8820;54.604;18.226;2024-01-30T00:41:36;4.20;99.90
17405;DHT22;8820;54.604;18.226;2024-01-30T00:44:04;4.30;99.90
17405;DHT22;8820;54.604;18.226;2024-01-30T00:46:33;4.40;99.90
17405;DHT22;8820;54.604;18.226;2024-01-30T00:49:01;4.40;99.90
17405;DHT22;8820;54.604;18.226;2024-01-30T00:51:29;4.40;99.90
17405;DHT22;8820;54.604;18.226;2024-01-30T00:53:59;4.50;99.90
17405;DHT22;8820;54.604;18.226;2024-01-30T00:56:28;4.40;99.90
17405;DHT22;8820;54.604;18.226;2024-01-30T00:58:56;4.40;99.90
17405;DHT22;8820;54.604;18.226;2024-01-30T01:01:24;4.50;99.90
17405;DHT22;8820;54.604;18.226;2024-01-30T01:03:53;4.50;99.90
17405;DHT22;8820;54.604;18.226;2024-01-30T01:06:21;4.50;99.90
17405;DHT22;8820;54.604;18.226;2024-01-30T01:08:49;4.50;99.90
17405;DHT22;8820;54.604;18.226;2024-01-30T01:11:19;4.50;99.70
17405;DHT22;8820;54.604;18.226;2024-01-30T01:13:48;4.50;99.90
17405;DHT22;8820;54.604;18.226;2024-01-30T01:16:16;4.40;99.90
17405;DHT22;8820;54.604;18.226;2024-01-30T01:18:44;4.40;99.90
17405;DHT22;8820;54.604;18.226;2024-01-30T01:21:13;4.30;99.90
17405;DHT22;8820;54.604;18.226;2024-01-30T01:23:41;4.40;99.90
17405;DHT22;8820;54.604;18.226;2024-01-30T01:26:09;4.30;99.90
17405;DHT22;8820;54.604;18.226;2024-01-30T01:28:41;4.40;99.90
17405;DHT22;8820;54.604;18.226;2024-01-30T01:31:09;4.40;99.90
17405;DHT22;8820;54.604;18.226;2024-01-30T01:33:37;4.30;99.90
17405;DHT22;8820;54.604;18.226;2024-01-30T01:36:06;4.30;99.90
17405;DHT22;8820;54.604;18.226;2024-01-30T01:38:35;4.30;99.90
17405;DHT22;8820;54.604;18.226;2024-01-30T01:41:03;4.30;99.90
17405;DHT22;8820;54.604;18.226;2024-01-30T01:43:31;4.30;99.90
17405;DHT22;8820;54.604;18.226;2024-01-30T01:46:01;4.30;99.90
17405;DHT22;8820;54.604;18.226;2024-01-30T01:48:30;4.30;99.90
17405;DHT22;8820;54.604;18.226;2024-01-30T01:50:59;4.30;99.90
17405;DHT22;8820;54.604;18.226;2024-01-30T01:53:28;4.30;99.90
17405;DHT22;8820;54.604;18.226;2024-01-30T01:55:56;4.30;99.90
17405;DHT22;8820;54.604;18.226;2024-01-30T01:58:27;4.30;99.90
17405;DHT22;8820;54.604;18.226;2024-01-30T02:00:57;4.40;99.90
17405;DHT22;8820;54.604;18.226;2024-01-30T02:03:27;4.30;99.90
17405;DHT22;8820;54.604;18.226;2024-01-30T02:05:56;4.40;99.90
17405;DHT22;8820;54.604;18.226;2024-01-30T02:08:24;4.40;99.90
17405;DHT22;8820;54.604;18.226;2024-01-30T02:10:53;4.40;99.90
17405;DHT22;8820;54.604;18.226;2024-01-30T02:13:22;4.20;99.90
17405;DHT22;8820;54.604;18.226;2024-01-30T02:15:51;4.20;99.90
17405;DHT22;8820;54.604;18.226;2024-01-30T02:18:20;4.20;99.90
17405;DHT22;8820;54.604;18.226;2024-01-30T02:20:51;4.20;99.90
17405;DHT22;8820;54.604;18.226;2024-01-30T02:23:24;4.20;99.90
17405;DHT22;8820;54.604;18.226;2024-01-30T02:25:52;4.20;99.90
17405;DHT22;8820;54.604;18.226;2024-01-30T02:28:21;4.10;99.90
17405;DHT22;8820;54.604;18.226;2024-01-30T02:30:49;4.10;99.90
17405;DHT22;8820;54.604;18.226;2024-01-30T02:33:17;4.10;99.90
17405;DHT22;8820;54.604;18.226;2024-01-30T02:35:46;4.20;99.90
17405;DHT22;8820;54.604;18.226;2024-01-30T02:38:15;4.20;99.90
17405;DHT22;8820;54.604;18.226;2024-01-30T02:40:45;4.20;99.90
17405;DHT22;8820;54.604;18.226;2024-01-30T02:43:13;4.20;99.90
17405;DHT22;8820;54.604;18.226;2024-01-30T02:45:42;4.20;99.90
17405;DHT22;8820;54.604;18.226;2024-01-30T02:48:10;4.20;99.90
17405;DHT22;8820;54.604;18.226;2024-01-30T02:50:38;4.10;99.90
17405;DHT22;8820;54.604;18.226;2024-01-30T02:53:07;4.00;99.90
17405;DHT22;8820;54.604;18.226;2024-01-30T02:55:35;4.00;99.90
17405;DHT22;8820;54.604;18.226;2024-01-30T02:58:05;4.00;99.90
17405;DHT22;8820;54.604;18.226;2024-01-30T03:00:34;4.00;99.90
17405;DHT22;8820;54.604;18.226;2024-01-30T03:03:02;3.90;99.90
17405;DHT22;8820;54.604;18.226;2024-01-30T03:05:31;4.00;99.90
17405;DHT22;8820;54.604;18.226;2024-01-30T03:07:59;3.90;99.90
17405;DHT22;8820;54.604;18.226;2024-01-30T03:10:28;4.00;99.90
17405;DHT22;8820;54.604;18.226;2024-01-30T03:12:56;3.90;99.90
17405;DHT22;8820;54.604;18.226;2024-01-30T03:15:26;4.00;99.90
17405;DHT22;8820;54.604;18.226;2024-01-30T03:17:54;3.90;99.90
17405;DHT22;8820;54.604;18.226;2024-01-30T03:20:22;3.70;99.90
17405;DHT22;8820;54.604;18.226;2024-01-30T03:22:51;3.50;99.90
17405;DHT22;8820;54.604;18.226;2024-01-30T03:25:19;3.60;99.90
17405;DHT22;8820;54.604;18.226;2024-01-30T03:27:48;3.60;99.90
17405;DHT22;8820;54.604;18.226;2024-01-30T03:30:16;3.70;99.90
17405;DHT22;8820;54.604;18.226;2024-01-30T03:32:46;3.40;99.90
17405;DHT22;8820;54.604;18.226;2024-01-30T03:35:14;3.20;99.90
17405;DHT22;8820;54.604;18.226;2024-01-30T03:37:43;3.20;99.90
17405;DHT22;8820;54.604;18.226;2024-01-30T03:40:12;3.10;99.90
17405;DHT22;8820;54.604;18.226;2024-01-30T03:42:40;3.30;99.90
17405;DHT22;8820;54.604;18.226;2024-01-30T03:45:09;3.40;99.90
17405;DHT22;8820;54.604;18.226;2024-01-30T03:47:37;3.50;99.90
17405;DHT22;8820;54.604;18.226;2024-01-30T03:50:08;3.50;99.90
17405;DHT22;8820;54.604;18.226;2024-01-30T03:52:36;3.50;99.90
17405;DHT22;8820;54.604;18.226;2024-01-30T03:55:05;3.50;99.90
17405;DHT22;8820;54.604;18.226;2024-01-30T03:57:33;3.50;99.90
17405;DHT22;8820;54.604;18.226;2024-01-30T04:00:02;3.50;99.90
17405;DHT22;8820;54.604;18.226;2024-01-30T04:02:38;3.50;99.90
17405;DHT22;8820;54.604;18.226;2024-01-30T04:05:08;3.50;99.90
17405;DHT22;8820;54.604;18.226;2024-01-30T04:07:36;3.60;99.90
17405;DHT22;8820;54.604;18.226;2024-01-30T04:10:06;3.60;99.90
17405;DHT22;8820;54.604;18.226;2024-01-30T04:12:34;3.50;99.90
17405;DHT22;8820;54.604;18.226;2024-01-30T04:15:03;3.60;99.90
17405;DHT22;8820;54.604;18.226;2024-01-30T04:17:31;3.60;99.90
17405;DHT22;8820;54.604;18.226;2024-01-30T04:20:00;3.60;99.90
17405;DHT22;8820;54.604;18.226;2024-01-30T04:22:29;3.70;99.90
17405;DHT22;8820;54.604;18.226;2024-01-30T04:24:59;3.60;99.90
17405;DHT22;8820;54.604;18.226;2024-01-30T04:27:27;3.70;99.90
17405;DHT22;8820;54.604;18.226;2024-01-30T04:29:56;3.80;99.90
17405;DHT22;8820;54.604;18.226;2024-01-30T04:32:24;3.70;99.90
17405;DHT22;8820;54.604;18.226;2024-01-30T04:34:52;3.80;99.90
17405;DHT22;8820;54.604;18.226;2024-01-30T04:37:21;3.80;99.90
17405;DHT22;8820;54.604;18.226;2024-01-30T04:39:50;3.90;99.90
17405;DHT22;8820;54.604;18.226;2024-01-30T04:42:19;3.90;99.90
17405;DHT22;8820;54.604;18.226;2024-01-30T04:44:47;3.90;99.90
17405;DHT22;8820;54.604;18.226;2024-01-30T04:47:15;3.90;99.90
17405;DHT22;8820;54.604;18.226;2024-01-30T04:49:44;3.90;99.90
17405;DHT22;8820;54.604;18.226;2024-01-30T04:52:12;4.00;99.90
17405;DHT22;8820;54.604;18.226;2024-01-30T04:54:40;4.00;99.90
17405;DHT22;8820;54.604;18.226;2024-01-30T04:57:10;4.10;99.90
17405;DHT22;8820;54.604;18.226;2024-01-30T04:59:39;4.00;99.90
17405;DHT22;8820;54.604;18.226;2024-01-30T05:02:07;4.00;99.90
17405;DHT22;8820;54.604;18.226;2024-01-30T05:04:36;4.20;99.90
17405;DHT22;8820;54.604;18.226;2024-01-30T05:07:04;4.30;99.90
17405;DHT22;8820;54.604;18.226;2024-01-30T05:09:33;4.30;99.90
17405;DHT22;8820;54.604;18.226;2024-01-30T05:12:01;4.40;99.90
17405;DHT22;8820;54.604;18.226;2024-01-30T05:14:31;4.30;99.90
17405;DHT22;8820;54.604;18.226;2024-01-30T05:16:59;4.30;99.90
17405;DHT22;8820;54.604;18.226;2024-01-30T05:19:27;4.40;99.90
17405;DHT22;8820;54.604;18.226;2024-01-30T05:21:56;4.40;99.90
17405;DHT22;8820;54.604;18.226;2024-01-30T05:24:24;4.40;99.90
17405;DHT22;8820;54.604;18.226;2024-01-30T05:26:54;4.40;99.90
17405;DHT22;8820;54.604;18.226;2024-01-30T05:29:22;4.40;99.90
17405;DHT22;8820;54.604;18.226;2024-01-30T05:31:51;4.40;99.90
17405;DHT22;8820;54.604;18.226;2024-01-30T05:34:20;4.50;99.90
17405;DHT22;8820;54.604;18.226;2024-01-30T05:36:48;4.40;99.90
17405;DHT22;8820;54.604;18.226;2024-01-30T05:39:16;4.50;99.90
17405;DHT22;8820;54.604;18.226;2024-01-30T05:41:45;4.50;99.90
17405;DHT22;8820;54.604;18.226;2024-01-30T05:44:13;4.40;99.90
17405;DHT22;8820;54.604;18.226;2024-01-30T05:46:42;4.40;99.90
17405;DHT22;8820;54.604;18.226;2024-01-30T05:49:11;4.30;99.90
17405;DHT22;8820;54.604;18.226;2024-01-30T05:51:40;4.20;99.90
17405;DHT22;8820;54.604;18.226;2024-01-30T05:54:08;4.30;99.90
17405;DHT22;8820;54.604;18.226;2024-01-30T05:56:37;4.30;99.90
17405;DHT22;8820;54.604;18.226;2024-01-30T05:59:06;4.40;99.90
17405;DHT22;8820;54.604;18.226;2024-01-30T06:01:33;4.40;99.90
17405;DHT22;8820;54.604;18.226;2024-01-30T06:04:02;4.50;99.90
17405;DHT22;8820;54.604;18.226;2024-01-30T06:06:31;4.30;99.90
17405;DHT22;8820;54.604;18.226;2024-01-30T06:09:00;4.30;99.90
17405;DHT22;8820;54.604;18.226;2024-01-30T06:11:28;4.50;99.90
17405;DHT22;8820;54.604;18.226;2024-01-30T06:13:56;4.50;99.90
17405;DHT22;8820;54.604;18.226;2024-01-30T06:16:24;4.60;99.90
17405;DHT22;8820;54.604;18.226;2024-01-30T06:18:56;4.60;99.90
17405;DHT22;8820;54.604;18.226;2024-01-30T06:21:26;4.60;99.90
17405;DHT22;8820;54.604;18.226;2024-01-30T06:23:55;4.50;99.90
17405;DHT22;8820;54.604;18.226;2024-01-30T06:26:24;4.50;99.90
17405;DHT22;8820;54.604;18.226;2024-01-30T06:28:52;4.50;99.90
17405;DHT22;8820;54.604;18.226;2024-01-30T06:31:20;4.40;99.90
17405;DHT22;8820;54.604;18.226;2024-01-30T06:33:49;4.40;99.90
17405;DHT22;8820;54.604;18.226;2024-01-30T06:36:18;4.20;99.90
17405;DHT22;8820;54.604;18.226;2024-01-30T06:38:46;4.20;99.90
17405;DHT22;8820;54.604;18.226;2024-01-30T06:41:15;4.30;99.90
17405;DHT22;8820;54.604;18.226;2024-01-30T06:43:44;4.30;99.90
17405;DHT22;8820;54.604;18.226;2024-01-30T06:46:13;4.50;99.90
17405;DHT22;8820;54.604;18.226;2024-01-30T06:48:41;4.50;99.90
17405;DHT22;8820;54.604;18.226;2024-01-30T06:51:11;4.40;99.90
17405;DHT22;8820;54.604;18.226;2024-01-30T06:53:43;4.30;99.90
17405;DHT22;8820;54.604;18.226;2024-01-30T06:56:11;4.20;99.90
17405;DHT22;8820;54.604;18.226;2024-01-30T06:58:41;4.30;99.90
17405;DHT22;8820;54.604;18.226;2024-01-30T07:01:09;4.40;99.90
17405;DHT22;8820;54.604;18.226;2024-01-30T07:03:38;4.40;99.90
17405;DHT22;8820;54.604;18.226;2024-01-30T07:06:07;4.50;99.90
17405;DHT22;8820;54.604;18.226;2024-01-30T07:08:35;4.60;99.90
17405;DHT22;8820;54.604;18.226;2024-01-30T07:11:04;4.60;99.90
17405;DHT22;8820;54.604;18.226;2024-01-30T07:13:33;4.60;99.90
17405;DHT22;8820;54.604;18.226;2024-01-30T07:16:04;4.50;99.90
17405;DHT22;8820;54.604;18.226;2024-01-30T07:18:32;4.40;99.90
17405;DHT22;8820;54.604;18.226;2024-01-30T07:21:01;4.40;99.90
17405;DHT22;8820;54.604;18.226;2024-01-30T07:23:29;4.30;99.90
17405;DHT22;8820;54.604;18.226;2024-01-30T07:25:57;4.30;99.90
17405;DHT22;8820;54.604;18.226;2024-01-30T07:28:25;4.40;99.90
17405;DHT22;8820;54.604;18.226;2024-01-30T07:30:54;4.40;99.90
17405;DHT22;8820;54.604;18.226;2024-01-30T07:33:23;4.50;99.90
17405;DHT22;8820;54.604;18.226;2024-01-30T07:35:53;4.60;99.90
17405;DHT22;8820;54.604;18.226;2024-01-30T07:38:21;4.50;99.90
17405;DHT22;8820;54.604;18.226;2024-01-30T07:40:50;4.60;99.90
17405;DHT22;8820;54.604;18.226;2024-01-30T07:43:18;4.80;99.90
17405;DHT22;8820;54.604;18.226;2024-01-30T07:45:47;4.90;99.90
17405;DHT22;8820;54.604;18.226;2024-01-30T07:48:15;4.80;99.90
17405;DHT22;8820;54.604;18.226;2024-01-30T07:50:45;4.90;99.90
17405;DHT22;8820;54.604;18.226;2024-01-30T07:53:13;5.00;99.90
17405;DHT22;8820;54.604;18.226;2024-01-30T07:55:42;5.10;99.90
17405;DHT22;8820;54.604;18.226;2024-01-30T07:58:13;5.10;99.90
17405;DHT22;8820;54.604;18.226;2024-01-30T08:00:42;5.20;99.90
17405;DHT22;8820;54.604;18.226;2024-01-30T08:03:10;5.20;99.90
17405;DHT22;8820;54.604;18.226;2024-01-30T08:05:39;5.30;99.90
17405;DHT22;8820;54.604;18.226;2024-01-30T08:08:09;5.30;99.90
17405;DHT22;8820;54.604;18.226;2024-01-30T08:10:37;5.30;99.90
17405;DHT22;8820;54.604;18.226;2024-01-30T08:13:07;5.50;99.90
17405;DHT22;8820;54.604;18.226;2024-01-30T08:15:36;5.50;99.90
17405;DHT22;8820;54.604;18.226;2024-01-30T08:18:05;5.60;99.90
17405;DHT22;8820;54.604;18.226;2024-01-30T08:20:34;5.60;99.90
17405;DHT22;8820;54.604;18.226;2024-01-30T08:23:02;5.60;99.90
17405;DHT22;8820;54.604;18.226;2024-01-30T08:25:32;5.60;99.90
17405;DHT22;8820;54.604;18.226;2024-01-30T08:28:00;5.60;99.90
17405;DHT22;8820;54.604;18.226;2024-01-30T08:30:28;5.70;99.90
17405;DHT22;8820;54.604;18.226;2024-01-30T08:32:57;5.90;99.20
17405;DHT22;8820;54.604;18.226;2024-01-30T08:35:26;6.00;98.70
17405;DHT22;8820;54.604;18.226;2024-01-30T08:37:55;6.00;97.70
17405;DHT22;8820;54.604;18.226;2024-01-30T08:40:23;6.00;97.60
17405;DHT22;8820;54.604;18.226;2024-01-30T08:42:53;6.00;95.40
17405;DHT22;8820;54.604;18.226;2024-01-30T08:45:21;6.00;97.70
17405;DHT22;8820;54.604;18.226;2024-01-30T08:47:50;6.10;95.20
17405;DHT22;8820;54.604;18.226;2024-01-30T08:50:18;6.20;97.50
17405;DHT22;8820;54.604;18.226;2024-01-30T08:52:46;6.50;98.50
17405;DHT22;8820;54.604;18.226;2024-01-30T08:55:16;6.70;94.70
17405;DHT22;8820;54.604;18.226;2024-01-30T08:57:45;6.80;93.80
17405;DHT22;8820;54.604;18.226;2024-01-30T09:00:15;6.80;93.60
17405;DHT22;8820;54.604;18.226;2024-01-30T09:02:44;6.70;91.60
17405;DHT22;8820;54.604;18.226;2024-01-30T09:05:12;6.70;94.00
17405;DHT22;8820;54.604;18.226;2024-01-30T09:07:41;6.80;95.90
17405;DHT22;8820;54.604;18.226;2024-01-30T09:10:09;6.80;94.00
17405;DHT22;8820;54.604;18.226;2024-01-30T09:12:39;6.80;93.90
17405;DHT22;8820;54.604;18.226;2024-01-30T09:15:09;6.70;91.80
17405;DHT22;8820;54.604;18.226;2024-01-30T09:17:38;6.60;91.60
17405;DHT22;8820;54.604;18.226;2024-01-30T09:20:07;6.50;91.80
17405;DHT22;8820;54.604;18.226;2024-01-30T09:22:37;6.50;91.90
17405;DHT22;8820;54.604;18.226;2024-01-30T09:25:06;6.50;92.00
17405;DHT22;8820;54.604;18.226;2024-01-30T09:27:34;6.50;91.40
17405;DHT22;8820;54.604;18.226;2024-01-30T09:30:03;6.50;92.20
17405;DHT22;8820;54.604;18.226;2024-01-30T09:32:32;6.60;91.50
17405;DHT22;8820;54.604;18.226;2024-01-30T09:35:02;6.60;92.10
17405;DHT22;8820;54.604;18.226;2024-01-30T09:37:30;6.70;92.00
17405;DHT22;8820;54.604;18.226;2024-01-30T09:39:59;6.90;91.10
17405;DHT22;8820;54.604;18.226;2024-01-30T09:42:31;7.00;90.00
17405;DHT22;8820;54.604;18.226;2024-01-30T09:45:01;7.00;90.10
17405;DHT22;8820;54.604;18.226;2024-01-30T09:47:32;6.90;90.70
17405;DHT22;8820;54.604;18.226;2024-01-30T09:50:02;6.80;91.60
17405;DHT22;8820;54.604;18.226;2024-01-30T09:52:33;6.90;91.50
17405;DHT22;8820;54.604;18.226;2024-01-30T09:55:01;7.00;90.70
17405;DHT22;8820;54.604;18.226;2024-01-30T09:57:30;7.00;90.50
17405;DHT22;8820;54.604;18.226;2024-01-30T09:59:58;7.30;92.60
17405;DHT22;8820;54.604;18.226;2024-01-30T10:02:26;7.40;90.40
17405;DHT22;8820;54.604;18.226;2024-01-30T10:04:55;7.50;91.20
17405;DHT22;8820;54.604;18.226;2024-01-30T10:07:24;7.70;90.00
17405;DHT22;8820;54.604;18.226;2024-01-30T10:09:53;7.60;87.50
17405;DHT22;8820;54.604;18.226;2024-01-30T10:12:25;7.50;88.10
17405;DHT22;8820;54.604;18.226;2024-01-30T10:14:56;7.40;90.40
17405;DHT22;8820;54.604;18.226;2024-01-30T10:17:25;7.60;89.10
17405;DHT22;8820;54.604;18.226;2024-01-30T10:19:58;7.70;88.80
17405;DHT22;8820;54.604;18.226;2024-01-30T10:22:28;7.60;89.90
17405;DHT22;8820;54.604;18.226;2024-01-30T10:24:57;7.70;89.60
17405;DHT22;8820;54.604;18.226;2024-01-30T10:27:27;7.60;89.60
17405;DHT22;8820;54.604;18.226;2024-01-30T10:29:58;7.70;88.10
17405;DHT22;8820;54.604;18.226;2024-01-30T10:32:27;7.80;87.20
17405;DHT22;8820;54.604;18.226;2024-01-30T10:34:56;7.80;86.80
17405;DHT22;8820;54.604;18.226;2024-01-30T10:37:25;7.80;88.70
17405;DHT22;8820;54.604;18.226;2024-01-30T10:39:56;7.90;87.60
17405;DHT22;8820;54.604;18.226;2024-01-30T10:42:32;7.90;86.70
17405;DHT22;8820;54.604;18.226;2024-01-30T10:45:05;7.60;88.00
17405;DHT22;8820;54.604;18.226;2024-01-30T10:47:36;7.70;89.10
17405;DHT22;8820;54.604;18.226;2024-01-30T10:50:05;7.80;90.80
17405;DHT22;8820;54.604;18.226;2024-01-30T10:52:36;7.90;89.00
17405;DHT22;8820;54.604;18.226;2024-01-30T10:55:07;7.80;89.60
17405;DHT22;8820;54.604;18.226;2024-01-30T10:57:36;7.90;90.00
17405;DHT22;8820;54.604;18.226;2024-01-30T11:00:07;8.00;88.60
17405;DHT22;8820;54.604;18.226;2024-01-30T11:02:38;8.00;89.60
17405;DHT22;8820;54.604;18.226;2024-01-30T11:05:08;8.00;87.70
17405;DHT22;8820;54.604;18.226;2024-01-30T11:07:39;8.00;88.70
17405;DHT22;8820;54.604;18.226;2024-01-30T11:10:12;8.00;90.30
17405;DHT22;8820;54.604;18.226;2024-01-30T11:12:42;8.20;89.80
17405;DHT22;8820;54.604;18.226;2024-01-30T11:15:13;8.40;88.60
17405;DHT22;8820;54.604;18.226;2024-01-30T11:17:49;8.50;86.80
17405;DHT22;8820;54.604;18.226;2024-01-30T11:20:20;8.60;87.20
17405;DHT22;8820;54.604;18.226;2024-01-30T11:22:51;8.70;86.20
17405;DHT22;8820;54.604;18.226;2024-01-30T11:25:22;8.80;84.80
17405;DHT22;8820;54.604;18.226;2024-01-30T11:27:51;8.90;82.30
17405;DHT22;8820;54.604;18.226;2024-01-30T11:30:24;8.90;83.90
17405;DHT22;8820;54.604;18.226;2024-01-30T11:33:03;8.80;83.80
17405;DHT22;8820;54.604;18.226;2024-01-30T11:35:36;8.80;83.60
17405;DHT22;8820;54.604;18.226;2024-01-30T11:38:07;8.90;84.90
17405;DHT22;8820;54.604;18.226;2024-01-30T11:40:37;9.00;84.50
17405;DHT22;8820;54.604;18.226;2024-01-30T11:43:08;9.00;83.60
17405;DHT22;8820;54.604;18.226;2024-01-30T11:45:37;9.10;83.00
17405;DHT22;8820;54.604;18.226;2024-01-30T11:48:07;9.20;81.50
17405;DHT22;8820;54.604;18.226;2024-01-30T11:50:38;9.20;83.30
17405;DHT22;8820;54.604;18.226;2024-01-30T11:53:06;9.40;82.50
17405;DHT22;8820;54.604;18.226;2024-01-30T11:55:35;9.30;80.80
17405;DHT22;8820;54.604;18.226;2024-01-30T11:58:06;9.10;83.10
17405;DHT22;8820;54.604;18.226;2024-01-30T12:00:34;9.10;83.40
17405;DHT22;8820;54.604;18.226;2024-01-30T12:03:03;9.30;82.50
17405;DHT22;8820;54.604;18.226;2024-01-30T12:05:34;9.40;82.00
17405;DHT22;8820;54.604;18.226;2024-01-30T12:08:04;9.50;80.60
17405;DHT22;8820;54.604;18.226;2024-01-30T12:10:32;9.60;84.80
17405;DHT22;8820;54.604;18.226;2024-01-30T12:13:01;9.60;82.10
17405;DHT22;8820;54.604;18.226;2024-01-30T12:15:31;9.70;80.90
17405;DHT22;8820;54.604;18.226;2024-01-30T12:18:07;9.70;81.10
17405;DHT22;8820;54.604;18.226;2024-01-30T12:20:35;9.70;80.70
17405;DHT22;8820;54.604;18.226;2024-01-30T12:23:04;9.60;81.60
17405;DHT22;8820;54.604;18.226;2024-01-30T12:25:32;9.60;80.60
17405;DHT22;8820;54.604;18.226;2024-01-30T12:28:01;9.80;81.30
17405;DHT22;8820;54.604;18.226;2024-01-30T12:30:31;9.70;79.20
17405;DHT22;8820;54.604;18.226;2024-01-30T12:33:00;9.80;80.10
17405;DHT22;8820;54.604;18.226;2024-01-30T12:35:31;9.80;80.50
17405;DHT22;8820;54.604;18.226;2024-01-30T12:38:00;9.90;79.90
17405;DHT22;8820;54.604;18.226;2024-01-30T12:40:28;9.90;79.10
17405;DHT22;8820;54.604;18.226;2024-01-30T12:42:56;9.90;78.40
17405;DHT22;8820;54.604;18.226;2024-01-30T12:45:25;10.00;78.80
17405;DHT22;8820;54.604;18.226;2024-01-30T12:47:55;10.00;78.20
17405;DHT22;8820;54.604;18.226;2024-01-30T12:50:23;10.00;79.00
17405;DHT22;8820;54.604;18.226;2024-01-30T12:52:52;10.20;81.70
17405;DHT22;8820;54.604;18.226;2024-01-30T12:55:20;10.20;79.10
17405;DHT22;8820;54.604;18.226;2024-01-30T12:57:48;10.30;77.90
17405;DHT22;8820;54.604;18.226;2024-01-30T13:00:17;10.20;78.10
17405;DHT22;8820;54.604;18.226;2024-01-30T13:02:47;10.20;78.00
17405;DHT22;8820;54.604;18.226;2024-01-30T13:05:17;10.30;78.30
17405;DHT22;8820;54.604;18.226;2024-01-30T13:07:46;10.30;77.30
17405;DHT22;8820;54.604;18.226;2024-01-30T13:10:14;10.20;77.80
17405;DHT22;8820;54.604;18.226;2024-01-30T13:12:43;10.30;77.70
17405;DHT22;8820;54.604;18.226;2024-01-30T13:15:11;10.30;77.70
17405;DHT22;8820;54.604;18.226;2024-01-30T13:17:39;10.40;77.10
17405;DHT22;8820;54.604;18.226;2024-01-30T13:20:10;10.40;77.10
17405;DHT22;8820;54.604;18.226;2024-01-30T13:22:40;10.40;76.90
17405;DHT22;8820;54.604;18.226;2024-01-30T13:25:11;10.30;77.40
17405;DHT22;8820;54.604;18.226;2024-01-30T13:27:41;10.30;76.70
17405;DHT22;8820;54.604;18.226;2024-01-30T13:30:10;10.00;77.00
17405;DHT22;8820;54.604;18.226;2024-01-30T13:32:38;9.80;77.40
17405;DHT22;8820;54.604;18.226;2024-01-30T13:35:08;9.80;78.40
17405;DHT22;8820;54.604;18.226;2024-01-30T13:37:36;9.90;78.30
17405;DHT22;8820;54.604;18.226;2024-01-30T13:40:07;9.70;78.10
17405;DHT22;8820;54.604;18.226;2024-01-30T13:42:38;9.70;79.00
17405;DHT22;8820;54.604;18.226;2024-01-30T13:45:07;9.60;79.00
17405;DHT22;8820;54.604;18.226;2024-01-30T13:47:37;9.70;79.70
17405;DHT22;8820;54.604;18.226;2024-01-30T13:50:06;9.70;78.10
17405;DHT22;8820;54.604;18.226;2024-01-30T13:52:34;9.60;78.60
17405;DHT22;8820;54.604;18.226;2024-01-30T13:55:08;9.50;78.10
17405;DHT22;8820;54.604;18.226;2024-01-30T13:57:37;9.30;80.00
17405;DHT22;8820;54.604;18.226;2024-01-30T14:00:06;9.00;80.20
17405;DHT22;8820;54.604;18.226;2024-01-30T14:02:41;9.00;81.40
17405;DHT22;8820;54.604;18.226;2024-01-30T14:05:09;9.00;81.10
17405;DHT22;8820;54.604;18.226;2024-01-30T14:07:38;8.80;81.60
17405;DHT22;8820;54.604;18.226;2024-01-30T14:10:09;8.80;84.50
17405;DHT22;8820;54.604;18.226;2024-01-30T14:12:41;8.60;83.90
17405;DHT22;8820;54.604;18.226;2024-01-30T14:15:09;8.50;85.70
17405;DHT22;8820;54.604;18.226;2024-01-30T14:17:42;8.50;85.90
17405;DHT22;8820;54.604;18.226;2024-01-30T14:20:10;8.60;86.30
17405;DHT22;8820;54.604;18.226;2024-01-30T14:22:39;8.40;86.60
17405;DHT22;8820;54.604;18.226;2024-01-30T14:25:09;8.40;87.90
17405;DHT22;8820;54.604;18.226;2024-01-30T14:27:38;8.30;89.00
17405;DHT22;8820;54.604;18.226;2024-01-30T14:30:07;8.30;89.50
17405;DHT22;8820;54.604;18.226;2024-01-30T14:32:38;8.30;90.10
17405;DHT22;8820;54.604;18.226;2024-01-30T14:35:08;8.20;90.00
17405;DHT22;8820;54.604;18.226;2024-01-30T14:37:37;8.20;89.60
17405;DHT22;8820;54.604;18.226;2024-01-30T14:40:06;8.30;90.30
17405;DHT22;8820;54.604;18.226;2024-01-30T14:42:36;8.30;91.10
17405;DHT22;8820;54.604;18.226;2024-01-30T14:45:06;8.20;90.10
17405;DHT22;8820;54.604;18.226;2024-01-30T14:47:35;8.10;90.10
17405;DHT22;8820;54.604;18.226;2024-01-30T14:50:04;8.00;91.30
17405;DHT22;8820;54.604;18.226;2024-01-30T14:52:35;8.00;91.90
17405;DHT22;8820;54.604;18.226;2024-01-30T14:55:04;8.00;91.20
17405;DHT22;8820;54.604;18.226;2024-01-30T14:57:32;7.90;91.70
17405;DHT22;8820;54.604;18.226;2024-01-30T15:00:04;7.90;91.90
17405;DHT22;8820;54.604;18.226;2024-01-30T15:02:34;7.70;92.50
17405;DHT22;8820;54.604;18.226;2024-01-30T15:05:02;7.80;93.00
17405;DHT22;8820;54.604;18.226;2024-01-30T15:07:31;7.80;92.70
17405;DHT22;8820;54.604;18.226;2024-01-30T15:10:05;7.70;92.40
17405;DHT22;8820;54.604;18.226;2024-01-30T15:12:34;7.60;92.60
17405;DHT22;8820;54.604;18.226;2024-01-30T15:15:06;7.50;93.50
17405;DHT22;8820;54.604;18.226;2024-01-30T15:17:35;7.30;94.50
17405;DHT22;8820;54.604;18.226;2024-01-30T15:20:05;7.40;94.60
17405;DHT22;8820;54.604;18.226;2024-01-30T15:22:34;7.30;95.40
17405;DHT22;8820;54.604;18.226;2024-01-30T15:25:03;7.40;94.80
17405;DHT22;8820;54.604;18.226;2024-01-30T15:27:31;7.30;94.80
17405;DHT22;8820;54.604;18.226;2024-01-30T15:29:59;7.30;94.60
17405;DHT22;8820;54.604;18.226;2024-01-30T15:32:29;7.30;95.20
17405;DHT22;8820;54.604;18.226;2024-01-30T15:34:57;7.20;94.70
17405;DHT22;8820;54.604;18.226;2024-01-30T15:37:29;7.20;96.00
17405;DHT22;8820;54.604;18.226;2024-01-30T15:39:58;7.20;95.50
17405;DHT22;8820;54.604;18.226;2024-01-30T15:42:26;7.20;95.80
17405;DHT22;8820;54.604;18.226;2024-01-30T15:44:54;7.10;95.50
17405;DHT22;8820;54.604;18.226;2024-01-30T15:47:22;7.10;95.70
17405;DHT22;8820;54.604;18.226;2024-01-30T15:49:52;7.10;95.70
17405;DHT22;8820;54.604;18.226;2024-01-30T15:52:20;7.00;96.20
17405;DHT22;8820;54.604;18.226;2024-01-30T15:54:49;7.00;96.20
17405;DHT22;8820;54.604;18.226;2024-01-30T15:57:17;6.90;96.50